createdAt,value
2023-02-05T00:01:35.565Z,9.30
2023-02-05T00:04:02.782Z,9.50
2023-02-05T00:06:29.549Z,9.60
2023-02-05T00:08:57.911Z,9.40
2023-02-05T00:11:25.125Z,9.40
2023-02-05T00:13:52.131Z,9.20
2023-02-05T00:16:21.084Z,9.20
2023-02-05T00:18:47.968Z,9.30
2023-02-05T00:21:16.024Z,9.20
2023-02-05T00:23:44.682Z,9.10
2023-02-05T00:26:13.435Z,9.50
2023-02-05T00:28:41.325Z,9.60
2023-02-05T00:31:20.401Z,9.40
2023-02-05T00:33:48.218Z,9.40
2023-02-05T00:36:15.847Z,9.50
2023-02-05T00:38:44.094Z,9.20
2023-02-05T00:41:11.644Z,8.50
2023-02-05T00:43:39.934Z,9.30
2023-02-05T00:46:07.647Z,9.30
2023-02-05T00:48:34.481Z,9.40
2023-02-05T00:51:02.614Z,9.60
2023-02-05T00:53:29.722Z,9.10
2023-02-05T00:55:56.708Z,9.30
2023-02-05T00:58:23.615Z,9.50
2023-02-05T01:00:51.180Z,9.70
2023-02-05T01:03:19.253Z,9.90
2023-02-05T01:05:46.503Z,9.80
2023-02-05T01:08:13.735Z,9.70
2023-02-05T01:10:45.405Z,9.50
2023-02-05T01:13:12.776Z,9.30
2023-02-05T01:15:40.014Z,9.20
2023-02-05T01:18:06.957Z,9.20
2023-02-05T01:20:36.404Z,9.00
2023-02-05T01:23:03.313Z,9.30
2023-02-05T01:25:30.173Z,9.30
2023-02-05T01:27:56.952Z,9.30
2023-02-05T01:30:23.751Z,9.00
2023-02-05T01:32:50.581Z,9.00
2023-02-05T01:35:17.597Z,9.20
2023-02-05T01:37:44.478Z,9.20
2023-02-05T01:40:15.201Z,9.20
2023-02-05T01:42:42.573Z,9.20
2023-02-05T01:45:25.173Z,9.20
2023-02-05T01:47:57.091Z,9.20
2023-02-05T01:50:33.599Z,9.10
2023-02-05T01:53:04.610Z,9.20
2023-02-05T01:55:33.219Z,8.90
2023-02-05T01:58:01.532Z,8.90
2023-02-05T02:00:28.449Z,8.90
2023-02-05T02:02:56.339Z,8.70
2023-02-05T02:05:23.142Z,8.20
2023-02-05T02:07:49.955Z,8.20
2023-02-05T02:10:18.981Z,8.20
2023-02-05T02:12:48.348Z,8.50
2023-02-05T02:15:25.623Z,8.40
2023-02-05T02:17:56.181Z,8.20
2023-02-05T02:20:30.135Z,9.40
2023-02-05T02:23:28.098Z,8.20
2023-02-05T02:26:07.785Z,8.10
2023-02-05T02:29:02.426Z,8.20
2023-02-05T02:31:40.025Z,8.00
2023-02-05T02:34:20.896Z,8.00
2023-02-05T02:36:52.088Z,8.00
2023-02-05T02:39:45.687Z,8.00
2023-02-05T02:42:24.065Z,7.60
2023-02-05T02:45:00.368Z,7.50
2023-02-05T02:47:34.698Z,7.10
2023-02-05T02:50:10.249Z,7.10
2023-02-05T02:52:41.094Z,7.10
2023-02-05T02:55:11.891Z,7.10
2023-02-05T02:57:43.313Z,7.10
2023-02-05T03:00:15.169Z,6.80
2023-02-05T03:02:45.467Z,6.80
2023-02-05T03:05:17.704Z,6.90
2023-02-05T03:07:54.567Z,6.90
2023-02-05T03:10:44.568Z,6.90
2023-02-05T03:13:12.585Z,7.00
2023-02-05T03:15:42.684Z,6.90
2023-02-05T03:18:10.498Z,7.10
2023-02-05T03:20:45.742Z,7.10
2023-02-05T03:23:12.831Z,6.80
2023-02-05T03:25:39.602Z,7.00
2023-02-05T03:28:06.419Z,6.70
2023-02-05T03:30:53.607Z,6.70
2023-02-05T03:33:39.608Z,6.90
2023-02-05T03:36:18.751Z,6.80
2023-02-05T03:39:27.358Z,6.70
2023-02-05T03:42:27.873Z,6.60
2023-02-05T03:45:00.137Z,6.30
2023-02-05T03:48:02.681Z,6.40
2023-02-05T03:50:59.643Z,6.40
2023-02-05T03:53:47.219Z,6.90
2023-02-05T03:56:19.628Z,6.00
2023-02-05T03:58:51.102Z,5.90
2023-02-05T04:01:19.392Z,6.30
2023-02-05T04:03:46.595Z,6.20
2023-02-05T04:06:13.700Z,6.10
2023-02-05T04:08:40.974Z,6.10
2023-02-05T04:11:09.529Z,6.00
2023-02-05T04:13:36.745Z,5.70
2023-02-05T04:16:03.708Z,5.70
2023-02-05T04:18:30.420Z,5.80
2023-02-05T04:20:57.152Z,5.70
2023-02-05T04:23:24.116Z,5.90
2023-02-05T04:25:54.726Z,5.80
2023-02-05T04:28:22.751Z,5.90
2023-02-05T04:30:49.548Z,5.70
2023-02-05T04:33:16.488Z,5.50
2023-02-05T04:35:43.371Z,5.80
2023-02-05T04:38:10.175Z,5.70
2023-02-05T04:40:36.959Z,5.90
2023-02-05T04:43:03.834Z,5.70
2023-02-05T04:45:31.414Z,5.60
2023-02-05T04:47:59.576Z,5.60
2023-02-05T04:50:26.923Z,5.50
2023-02-05T04:52:53.744Z,5.50
2023-02-05T04:55:20.533Z,5.60
2023-02-05T04:57:49.657Z,5.70
2023-02-05T05:00:17.239Z,5.60
2023-02-05T05:02:44.084Z,5.60
2023-02-05T05:05:12.073Z,5.60
2023-02-05T05:07:38.923Z,5.60
2023-02-05T05:10:09.438Z,5.60
2023-02-05T05:12:37.301Z,5.50
2023-02-05T05:15:08.203Z,5.20
2023-02-05T05:17:35.603Z,5.30
2023-02-05T05:20:03.005Z,5.10
2023-02-05T05:22:29.809Z,5.10
2023-02-05T05:24:56.541Z,5.20
2023-02-05T05:27:24.345Z,5.00
2023-02-05T05:29:51.134Z,4.80
2023-02-05T05:32:18.013Z,4.90
2023-02-05T05:34:45.035Z,4.90
2023-02-05T05:37:11.775Z,5.00
2023-02-05T05:39:57.375Z,6.60
2023-02-05T05:42:43.031Z,4.40
2023-02-05T05:45:12.095Z,5.10
2023-02-05T05:47:39.228Z,5.20
2023-02-05T05:50:06.701Z,5.00
2023-02-05T05:52:33.765Z,4.90
2023-02-05T05:55:00.952Z,4.70
2023-02-05T05:57:27.748Z,4.80
2023-02-05T05:59:54.531Z,4.70
2023-02-05T06:02:21.307Z,4.80
2023-02-05T06:04:48.573Z,4.80
2023-02-05T06:07:16.556Z,4.90
2023-02-05T06:09:43.275Z,4.60
2023-02-05T06:12:11.671Z,4.50
2023-02-05T06:14:42.055Z,4.40
2023-02-05T06:17:08.999Z,4.50
2023-02-05T06:19:35.858Z,4.30
2023-02-05T06:22:03.604Z,4.40
2023-02-05T06:24:31.074Z,3.20
2023-02-05T06:26:58.016Z,4.40
2023-02-05T06:29:24.976Z,4.10
2023-02-05T06:31:52.332Z,4.10
2023-02-05T06:34:19.798Z,4.90
2023-02-05T06:36:47.030Z,4.10
2023-02-05T06:39:13.848Z,4.00
2023-02-05T06:41:40.675Z,5.20
2023-02-05T06:44:08.259Z,4.00
2023-02-05T06:46:38.438Z,4.10
2023-02-05T06:49:08.005Z,4.00
2023-02-05T06:51:35.177Z,4.10
2023-02-05T06:54:01.959Z,4.20
2023-02-05T06:56:28.801Z,4.50
2023-02-05T06:58:55.826Z,4.50
2023-02-05T07:01:22.955Z,4.70
2023-02-05T07:03:52.369Z,4.70
2023-02-05T07:06:19.169Z,4.50
2023-02-05T07:08:47.756Z,4.50
2023-02-05T07:11:14.480Z,4.40
2023-02-05T07:13:41.275Z,4.40
2023-02-05T07:16:08.633Z,4.10
2023-02-05T07:18:39.781Z,4.10
2023-02-05T07:21:08.694Z,4.00
2023-02-05T07:23:36.595Z,4.10
2023-02-05T07:26:07.865Z,4.00
2023-02-05T07:28:34.671Z,3.90
2023-02-05T07:31:09.834Z,4.00
2023-02-05T07:33:37.108Z,3.80
2023-02-05T07:36:09.265Z,3.70
2023-02-05T07:38:40.485Z,3.70
2023-02-05T07:41:09.965Z,3.80
2023-02-05T07:43:39.776Z,3.70
2023-02-05T07:46:09.998Z,3.90
2023-02-05T07:48:37.032Z,4.00
2023-02-05T07:51:05.166Z,3.70
2023-02-05T07:53:32.396Z,3.70
2023-02-05T07:56:08.030Z,3.80
2023-02-05T07:58:34.841Z,4.10
2023-02-05T08:01:05.531Z,4.20
2023-02-05T08:03:33.060Z,4.30
2023-02-05T08:06:03.478Z,4.20
2023-02-05T08:08:30.337Z,4.20
2023-02-05T08:11:02.576Z,4.30
2023-02-05T08:13:29.792Z,4.10
2023-02-05T08:15:56.714Z,4.00
2023-02-05T08:18:25.424Z,4.20
2023-02-05T08:20:56.090Z,4.20
2023-02-05T08:23:23.097Z,4.40
2023-02-05T08:25:54.492Z,4.50
2023-02-05T08:28:21.848Z,3.30
2023-02-05T08:30:48.747Z,4.70
2023-02-05T08:33:18.718Z,5.40
2023-02-05T08:35:45.659Z,4.50
2023-02-05T08:38:12.581Z,4.40
2023-02-05T08:40:39.511Z,4.70
2023-02-05T08:43:08.483Z,4.80
2023-02-05T08:45:36.082Z,4.80
2023-02-05T08:48:03.279Z,4.60
2023-02-05T08:50:32.597Z,4.60
2023-02-05T08:52:59.359Z,4.70
2023-02-05T08:55:27.641Z,4.60
2023-02-05T08:57:54.450Z,4.00
2023-02-05T09:00:22.732Z,4.90
2023-02-05T09:02:49.653Z,4.90
2023-02-05T09:05:16.498Z,4.80
2023-02-05T09:07:43.540Z,4.80
2023-02-05T09:10:12.893Z,5.20
2023-02-05T09:12:39.952Z,5.50
2023-02-05T09:15:07.915Z,5.40
2023-02-05T09:17:34.972Z,5.40
2023-02-05T09:20:02.007Z,5.80
2023-02-05T09:22:28.848Z,5.70
2023-02-05T09:24:55.642Z,5.70
2023-02-05T09:27:23.871Z,5.40
2023-02-05T09:29:50.758Z,5.70
2023-02-05T09:32:17.489Z,6.00
2023-02-05T09:34:44.311Z,6.00
2023-02-05T09:37:11.082Z,6.20
2023-02-05T09:42:28.691Z,6.00
2023-02-05T09:45:06.377Z,6.20
2023-02-05T09:47:50.954Z,6.00
2023-02-05T09:50:29.770Z,6.10
2023-02-05T09:53:11.145Z,6.50
2023-02-05T09:55:44.785Z,6.20
2023-02-05T09:58:24.708Z,6.30
2023-02-05T10:00:54.795Z,6.50
2023-02-05T10:03:44.786Z,6.70
2023-02-05T10:06:29.638Z,6.40
2023-02-05T10:09:03.402Z,6.60
2023-02-05T10:11:53.188Z,6.90
2023-02-05T10:14:49.212Z,6.60
2023-02-05T10:17:51.185Z,6.60
2023-02-05T10:20:53.357Z,6.80
2023-02-05T10:23:41.870Z,6.80
2023-02-05T10:26:13.746Z,6.70
2023-02-05T10:28:58.543Z,6.70
2023-02-05T10:32:09.693Z,6.90
2023-02-05T10:35:04.073Z,7.30
2023-02-05T10:37:41.880Z,7.60
2023-02-05T10:40:18.398Z,7.80
2023-02-05T10:43:10.931Z,7.60
2023-02-05T10:45:40.226Z,7.30
2023-02-05T10:48:24.525Z,9.10
2023-02-05T10:51:02.412Z,7.70
2023-02-05T10:53:30.421Z,7.70
2023-02-05T10:55:59.212Z,7.50
2023-02-05T10:58:39.362Z,7.60
2023-02-05T11:01:12.972Z,7.40
2023-02-05T11:03:40.938Z,7.40
2023-02-05T11:06:10.511Z,7.60
2023-02-05T11:08:44.008Z,8.10
2023-02-05T11:11:40.170Z,8.30
2023-02-05T11:14:07.994Z,8.30
2023-02-05T11:16:38.921Z,8.60
2023-02-05T11:19:24.148Z,8.60
2023-02-05T11:21:55.501Z,8.40
2023-02-05T11:24:27.107Z,8.40
2023-02-05T11:27:27.863Z,8.50
2023-02-05T11:29:57.541Z,8.60
2023-02-05T11:32:36.655Z,8.50
2023-02-05T11:35:29.820Z,8.60
2023-02-05T11:38:09.056Z,8.70
2023-02-05T11:40:36.821Z,9.10
2023-02-05T11:43:07.648Z,9.50
2023-02-05T11:45:37.920Z,9.50
2023-02-05T11:48:21.154Z,10.00
2023-02-05T11:50:48.115Z,9.90
2023-02-05T11:53:19.609Z,9.60
2023-02-05T11:55:56.493Z,9.80
2023-02-05T11:58:37.033Z,9.80
2023-02-05T12:01:23.992Z,10.00
2023-02-05T12:04:02.694Z,10.30
2023-02-05T12:06:37.222Z,10.40
2023-02-05T12:09:04.255Z,10.40
2023-02-05T12:12:21.498Z,10.60
2023-02-05T12:15:22.419Z,11.00
2023-02-05T12:18:07.154Z,11.30
2023-02-05T12:21:11.419Z,11.30
2023-02-05T12:24:06.589Z,11.10
2023-02-05T12:26:40.031Z,11.50
2023-02-05T12:29:28.822Z,11.20
2023-02-05T12:32:19.507Z,12.10
2023-02-05T12:35:18.457Z,12.90
2023-02-05T12:38:21.146Z,12.30
2023-02-05T12:41:18.762Z,11.70
2023-02-05T12:43:47.997Z,11.50
2023-02-05T12:46:33.079Z,11.50
2023-02-05T12:49:06.138Z,11.60
2023-02-05T12:51:53.523Z,11.20
2023-02-05T12:54:39.505Z,11.40
2023-02-05T12:57:10.277Z,11.40
2023-02-05T12:59:58.346Z,11.20
2023-02-05T13:02:54.028Z,11.30
2023-02-05T13:05:29.277Z,11.40
2023-02-05T13:08:06.267Z,11.70
2023-02-05T13:10:48.688Z,12.30
2023-02-05T13:13:22.285Z,12.70
2023-02-05T13:15:58.896Z,12.50
2023-02-05T13:18:41.177Z,11.50
2023-02-05T13:21:32.466Z,10.80
2023-02-05T13:24:38.578Z,11.50
2023-02-05T13:27:37.691Z,12.40
2023-02-05T13:30:08.557Z,12.60
2023-02-05T13:32:36.617Z,14.00
2023-02-05T13:35:06.093Z,13.80
2023-02-05T13:38:10.622Z,13.90
2023-02-05T13:40:40.424Z,12.90
2023-02-05T13:43:15.541Z,13.30
2023-02-05T13:46:29.404Z,12.70
2023-02-05T13:49:43.088Z,13.40
2023-02-05T13:52:55.905Z,13.10
2023-02-05T13:55:44.074Z,13.50
2023-02-05T13:58:20.548Z,12.60
2023-02-05T14:00:52.360Z,12.70
2023-02-05T14:03:38.099Z,13.30
2023-02-05T14:06:21.759Z,13.20
2023-02-05T14:08:51.898Z,13.80
2023-02-05T14:11:19.320Z,13.40
2023-02-05T14:14:14.855Z,12.50
2023-02-05T14:16:41.792Z,12.50
2023-02-05T14:19:08.479Z,12.50
2023-02-05T14:21:35.229Z,13.30
2023-02-05T14:24:22.821Z,13.00
2023-02-05T14:26:56.591Z,12.30
2023-02-05T14:29:42.966Z,12.20
2023-02-05T14:32:28.748Z,12.80
2023-02-05T14:35:01.307Z,13.30
2023-02-05T14:37:33.965Z,12.30
2023-02-05T14:40:20.841Z,12.60
2023-02-05T14:42:47.939Z,13.10
2023-02-05T14:45:16.974Z,12.20
2023-02-05T14:47:44.959Z,12.50
2023-02-05T14:50:21.044Z,12.20
2023-02-05T14:52:57.270Z,12.30
2023-02-05T14:55:37.890Z,12.40
2023-02-05T14:58:25.835Z,11.90
2023-02-05T15:01:30.873Z,12.40
2023-02-05T15:04:00.693Z,12.20
2023-02-05T15:06:29.680Z,12.70
2023-02-05T15:09:44.229Z,12.60
2023-02-05T15:13:01.177Z,11.60
2023-02-05T15:15:35.985Z,10.50
2023-02-05T15:18:10.449Z,10.60
2023-02-05T15:20:40.405Z,11.00
2023-02-05T15:23:28.449Z,11.20
2023-02-05T15:26:08.873Z,11.40
2023-02-05T15:29:09.239Z,11.60
2023-02-05T15:31:43.036Z,11.40
2023-02-05T15:34:14.013Z,11.10
2023-02-05T15:36:46.181Z,11.10
2023-02-05T15:39:20.026Z,11.10
2023-02-05T15:41:47.930Z,11.10
2023-02-05T15:44:24.208Z,11.20
2023-02-05T15:46:53.258Z,10.90
2023-02-05T15:49:28.525Z,11.30
2023-02-05T15:51:55.858Z,11.00
2023-02-05T15:54:23.589Z,11.00
2023-02-05T15:56:53.654Z,11.10
2023-02-05T15:59:28.183Z,11.00
2023-02-05T16:02:28.503Z,10.90
2023-02-05T16:05:14.978Z,10.90
2023-02-05T16:07:43.916Z,10.90
2023-02-05T16:10:20.717Z,10.70
2023-02-05T16:13:13.430Z,10.50
2023-02-05T16:15:42.511Z,10.20
2023-02-05T16:18:21.503Z,10.40
2023-02-05T16:20:54.382Z,10.40
2023-02-05T16:23:29.361Z,10.20
2023-02-05T16:26:04.955Z,10.20
2023-02-05T16:29:20.134Z,10.10
2023-02-05T16:32:03.148Z,10.20
2023-02-05T16:34:32.021Z,10.10
2023-02-05T16:37:04.456Z,9.70
2023-02-05T16:39:43.425Z,9.40
2023-02-05T16:42:29.316Z,9.60
2023-02-05T16:45:08.397Z,9.60
2023-02-05T16:47:36.508Z,9.10
2023-02-05T16:50:34.180Z,8.90
2023-02-05T16:53:01.148Z,9.10
2023-02-05T16:55:27.878Z,9.10
2023-02-05T16:57:56.738Z,9.00
2023-02-05T17:00:27.946Z,9.00
2023-02-05T17:02:59.564Z,9.20
2023-02-05T17:05:30.864Z,9.30
2023-02-05T17:08:05.797Z,9.40
2023-02-05T17:10:55.643Z,9.20
2023-02-05T17:13:38.629Z,8.40
2023-02-05T17:16:31.166Z,8.10
2023-02-05T17:19:01.186Z,8.30
2023-02-05T17:21:29.245Z,8.60
2023-02-05T17:23:58.866Z,8.70
2023-02-05T17:26:32.340Z,8.90
2023-02-05T17:29:02.748Z,9.00
2023-02-05T17:31:38.438Z,8.50
2023-02-05T17:34:07.398Z,8.50
2023-02-05T17:36:34.149Z,8.80
2023-02-05T17:39:01.990Z,9.00
2023-02-05T17:41:51.267Z,8.70
2023-02-05T17:44:18.486Z,8.70
2023-02-05T17:46:46.513Z,8.20
2023-02-05T17:49:14.421Z,8.20
2023-02-05T17:51:42.690Z,8.20
2023-02-05T17:54:18.802Z,8.30
2023-02-05T17:56:48.209Z,8.60
2023-02-05T17:59:20.365Z,8.50
2023-02-05T18:01:48.776Z,8.30
2023-02-05T18:04:19.523Z,7.90
2023-02-05T18:06:49.950Z,7.50
2023-02-05T18:09:16.926Z,7.80
2023-02-05T18:11:45.996Z,7.70
2023-02-05T18:14:14.561Z,7.60
2023-02-05T18:16:41.714Z,7.40
2023-02-05T18:19:08.650Z,7.30
2023-02-05T18:21:36.061Z,7.00
2023-02-05T18:24:03.979Z,6.80
2023-02-05T18:26:31.040Z,6.80
2023-02-05T18:28:58.166Z,6.80
2023-02-05T18:31:26.004Z,6.80
2023-02-05T18:33:54.108Z,6.80
2023-02-05T18:36:21.182Z,6.80
2023-02-05T18:38:47.935Z,6.50
2023-02-05T18:41:18.307Z,6.30
2023-02-05T18:43:45.220Z,6.40
2023-02-05T18:46:14.551Z,6.60
2023-02-05T18:48:41.792Z,6.60
2023-02-05T18:51:11.020Z,6.50
2023-02-05T18:53:39.558Z,6.60
2023-02-05T18:56:09.225Z,6.60
2023-02-05T18:58:36.607Z,6.60
2023-02-05T19:01:21.373Z,6.40
2023-02-05T19:03:48.768Z,5.90
2023-02-05T19:06:17.153Z,5.50
2023-02-05T19:08:44.171Z,5.20
2023-02-05T19:11:16.654Z,5.10
2023-02-05T19:13:43.702Z,6.80
2023-02-05T19:16:13.257Z,5.60
2023-02-05T19:18:41.826Z,5.40
2023-02-05T19:21:15.367Z,5.20
2023-02-05T19:23:44.243Z,4.90
2023-02-05T19:26:15.661Z,4.90
2023-02-05T19:28:44.488Z,4.90
2023-02-05T19:31:14.186Z,4.90
2023-02-05T19:33:42.273Z,4.70
2023-02-05T19:36:11.178Z,4.60
2023-02-05T19:38:39.992Z,4.80
2023-02-05T19:41:21.287Z,4.70
2023-02-05T19:43:53.625Z,4.40
2023-02-05T19:46:26.860Z,4.30
2023-02-05T19:48:55.074Z,4.30
2023-02-05T19:51:22.506Z,4.30
2023-02-05T19:53:50.225Z,4.40
2023-02-05T19:56:23.898Z,4.20
2023-02-05T19:58:54.849Z,4.30
2023-02-05T20:01:31.288Z,4.10
2023-02-05T20:04:00.730Z,4.30
2023-02-05T20:06:29.427Z,4.40
2023-02-05T20:08:56.508Z,4.20
2023-02-05T20:11:23.433Z,4.00
2023-02-05T20:13:54.151Z,4.40
2023-02-05T20:16:22.910Z,4.10
2023-02-05T20:18:56.463Z,3.60
2023-02-05T20:21:25.442Z,3.60
2023-02-05T20:23:52.801Z,3.80
2023-02-05T20:26:22.195Z,4.20
2023-02-05T20:29:13.004Z,3.90
2023-02-05T20:31:45.159Z,3.60
2023-02-05T20:34:22.312Z,3.50
2023-02-05T20:36:57.644Z,3.30
2023-02-05T20:39:28.803Z,3.20
2023-02-05T20:41:57.923Z,3.00
2023-02-05T20:44:26.742Z,2.80
2023-02-05T20:46:53.687Z,2.80
2023-02-05T20:49:20.904Z,2.80
2023-02-05T20:51:50.462Z,3.00
2023-02-05T20:54:18.263Z,3.30
2023-02-05T20:56:45.281Z,3.30
2023-02-05T20:59:12.714Z,3.20
2023-02-05T21:01:40.397Z,2.80
2023-02-05T21:04:10.205Z,2.70
2023-02-05T21:06:40.133Z,2.70
2023-02-05T21:09:09.436Z,2.60
2023-02-05T21:11:37.309Z,2.80
2023-02-05T21:14:04.812Z,3.10
2023-02-05T21:16:34.277Z,3.10
2023-02-05T21:19:02.081Z,3.10
2023-02-05T21:21:32.261Z,3.00
2023-02-05T21:24:18.692Z,2.80
2023-02-05T21:26:47.661Z,2.80
2023-02-05T21:29:19.026Z,2.80
2023-02-05T21:31:52.837Z,2.80
2023-02-05T21:34:22.825Z,2.80
2023-02-05T21:36:50.523Z,2.90
2023-02-05T21:39:20.752Z,3.10
2023-02-05T21:41:48.633Z,3.80
2023-02-05T21:44:17.884Z,2.70
2023-02-05T21:46:44.942Z,2.40
2023-02-05T21:49:12.201Z,2.40
2023-02-05T21:51:40.321Z,2.20
2023-02-05T21:54:08.245Z,2.30
2023-02-05T21:56:40.842Z,2.40
2023-02-05T21:59:08.001Z,2.70
2023-02-05T22:01:36.921Z,2.20
2023-02-05T22:04:13.474Z,2.20
2023-02-05T22:06:42.011Z,2.20
2023-02-05T22:09:11.509Z,2.20
2023-02-05T22:11:41.325Z,2.20
2023-02-05T22:14:09.088Z,2.50
2023-02-05T22:16:37.441Z,2.40
2023-02-05T22:19:05.638Z,2.50
2023-02-05T22:21:35.343Z,2.40
2023-02-05T22:24:03.884Z,2.30
2023-02-05T22:26:36.174Z,2.10
2023-02-05T22:29:06.196Z,2.40
2023-02-05T22:31:34.193Z,2.20
2023-02-05T22:34:01.126Z,2.20
2023-02-05T22:36:31.349Z,2.00
2023-02-05T22:38:58.622Z,1.70
2023-02-05T22:41:32.044Z,1.70
2023-02-05T22:44:00.728Z,1.90
2023-02-05T22:46:31.056Z,2.10
2023-02-05T22:49:01.276Z,2.10
2023-02-05T22:51:33.805Z,2.00
2023-02-05T22:54:00.994Z,1.80
2023-02-05T22:56:28.727Z,1.70
2023-02-05T22:58:56.360Z,1.80
2023-02-05T23:01:26.185Z,1.90
2023-02-05T23:03:53.359Z,1.90
2023-02-05T23:06:22.263Z,1.90
2023-02-05T23:08:59.897Z,1.80
2023-02-05T23:11:29.129Z,1.70
2023-02-05T23:13:58.064Z,1.70
2023-02-05T23:16:33.899Z,2.60
2023-02-05T23:19:03.723Z,1.60
2023-02-05T23:21:34.379Z,2.20
2023-02-05T23:24:01.538Z,2.10
2023-02-05T23:26:32.660Z,2.00
2023-02-05T23:29:00.599Z,2.00
2023-02-05T23:31:28.023Z,3.40
2023-02-05T23:33:54.918Z,1.80
2023-02-05T23:36:22.239Z,1.50
2023-02-05T23:38:50.143Z,1.60
2023-02-05T23:41:35.654Z,1.50
2023-02-05T23:44:07.663Z,1.50
2023-02-05T23:46:35.850Z,1.40
2023-02-05T23:49:03.291Z,1.30
2023-02-05T23:51:30.022Z,1.10
2023-02-05T23:53:56.982Z,0.90
2023-02-05T23:56:23.727Z,1.60
2023-02-05T23:58:50.777Z,1.10
